Time;durP1;ratioP1;P1;durP2;ratioP2;P2;SDS_P1;SDS_P2;PMS_P1;PMS_P2;Temp;Humidity;BMP_temperature;BMP_pressure;BME280_temperature;BME280_humidity;BME280_pressure;Samples;Min_cycle;Max_cycle;Signal;HPM_P1;HPM_P2
2022/03/13 17:23:51;;;;;;;30.80;15.30;;;13.00;51.50;;;;;;12054270;22;20257;-86
2022/03/13 17:28:53;;;;;;;27.73;16.47;;;9.10;42.80;;;;;;12919100;23;20200;-85
2022/03/13 17:33:56;;;;;;;28.80;15.60;;;7.00;46.80;;;;;;12920527;23;20182;-85
2022/03/13 17:38:58;;;;;;;33.37;18.33;;;6.20;48.20;;;;;;12919670;23;20178;-89
2022/03/13 17:44:01;;;;;;;31.53;18.80;;;6.00;48.90;;;;;;12915818;23;20178;-89
2022/03/13 17:49:05;;;;;;;36.00;17.00;;;5.70;49.60;;;;;;12914756;23;20182;-92
2022/03/13 17:54:09;;;;;;;33.47;17.67;;;6.70;63.60;;;;;;12918483;23;20194;-88
2022/03/13 17:59:12;;;;;;;27.17;14.97;;;8.30;57.30;;;;;;12913010;23;20172;-87
2022/03/13 18:04:14;;;;;;;24.87;15.33;;;10.60;57.10;;;;;;12915665;23;20237;-87
2022/03/13 18:09:17;;;;;;;31.07;16.33;;;11.10;57.10;;;;;;12914325;23;20172;-86
2022/03/13 18:14:19;;;;;;;29.00;17.70;;;11.80;56.40;;;;;;12918352;23;20174;-87
2022/03/13 18:19:22;;;;;;;29.00;16.40;;;11.20;49.30;;;;;;12941746;23;20188;-85
2022/03/13 18:24:25;;;;;;;26.40;16.83;;;11.70;49.20;;;;;;12918740;23;20658;-82
2022/03/13 18:29:28;;;;;;;28.87;13.17;;;9.20;51.90;;;;;;12915237;23;20174;-83
2022/03/13 18:34:30;;;;;;;32.37;20.30;;;12.10;57.80;;;;;;12935597;23;20512;-84
2022/03/13 18:39:33;;;;;;;19.67;12.30;;;13.20;49.70;;;;;;12916456;23;20167;-82
2022/03/13 18:44:39;;;;;;;17.40;11.97;;;13.20;53.40;;;;;;12917113;23;20243;-83
2022/03/13 18:49:47;;;;;;;38.40;19.23;;;13.60;54.40;;;;;;12936002;23;20187;-83
2022/03/13 18:54:50;;;;;;;23.30;11.27;;;13.70;50.00;;;;;;12914351;23;20217;-83
2022/03/13 18:59:53;;;;;;;20.87;11.20;;;13.90;54.20;;;;;;12915600;23;20174;-83
2022/03/13 19:04:55;;;;;;;17.53;11.23;;;13.70;54.60;;;;;;12914526;23;20224;-83
2022/03/13 19:09:58;;;;;;;18.93;12.23;;;13.70;54.30;;;;;;12911337;23;20224;-83
2022/03/13 19:15:07;;;;;;;32.93;19.40;;;13.70;54.30;;;;;;12915010;23;20162;-83
2022/03/13 19:20:13;;;;;;;23.60;14.40;;;13.70;51.80;;;;;;12915858;23;20197;-83
2022/03/13 19:25:15;;;;;;;16.60;9.93;;;13.30;53.80;;;;;;12913826;23;20198;-83
2022/03/13 19:30:23;;;;;;;27.57;15.20;;;13.20;53.40;;;;;;12934471;23;20190;-83
2022/03/13 19:35:25;;;;;;;20.90;13.87;;;13.20;52.20;;;;;;12915226;23;20163;-83
2022/03/13 19:40:28;;;;;;;19.17;12.67;;;13.40;54.50;;;;;;12914630;23;20237;-83
2022/03/13 19:45:30;;;;;;;14.30;10.47;;;13.30;54.10;;;;;;12913402;23;20166;-83
2022/03/13 19:50:33;;;;;;;22.80;12.93;;;13.40;56.20;;;;;;12916232;23;20248;-83
2022/03/13 19:55:36;;;;;;;38.00;23.40;;;12.80;56.10;;;;;;12916391;23;20171;-83
2022/03/13 20:00:39;;;;;;;23.87;15.93;;;12.70;50.10;;;;;;12916013;23;20608;-84
2022/03/13 20:05:41;;;;;;;16.77;10.33;;;13.20;55.60;;;;;;12915823;23;20178;-84
2022/03/13 20:10:44;;;;;;;18.90;12.17;;;13.30;56.10;;;;;;12914097;23;20256;-84
2022/03/13 20:15:46;;;;;;;17.37;10.23;;;13.40;56.00;;;;;;12914017;23;20174;-83
2022/03/13 20:20:49;;;;;;;26.83;16.00;;;13.40;56.70;;;;;;12915554;23;20170;-83
2022/03/13 20:25:52;;;;;;;14.20;9.50;;;13.00;52.90;;;;;;12917173;23;20190;-84
2022/03/13 20:30:57;;;;;;;16.40;9.70;;;13.30;57.00;;;;;;12913753;23;20260;-84
2022/03/13 20:36:03;;;;;;;15.30;9.90;;;13.60;56.30;;;;;;12916349;23;20170;-84
2022/03/13 20:41:06;;;;;;;19.10;12.33;;;13.40;56.70;;;;;;12923272;23;20174;-85
2022/03/13 20:46:08;;;;;;;31.60;21.03;;;13.10;57.00;;;;;;12915977;23;20170;-84
2022/03/13 20:51:11;;;;;;;13.83;9.60;;;12.60;56.00;;;;;;12916404;23;20260;-84
2022/03/13 20:56:15;;;;;;;18.43;11.27;;;12.40;58.60;;;;;;12913259;23;20224;-83
2022/03/13 21:01:17;;;;;;;16.70;10.63;;;12.60;58.60;;;;;;12915214;23;20193;-83
2022/03/13 21:06:21;;;;;;;16.30;9.33;;;12.70;58.30;;;;;;12914979;23;20174;-83
2022/03/13 21:11:40;;;;;;;15.30;9.33;;;12.80;58.40;;;;;;12916707;23;20182;-83
2022/03/13 21:16:45;;;;;;;16.67;9.13;;;13.00;58.20;;;;;;12914427;23;20170;-84
2022/03/13 21:21:50;;;;;;;26.50;14.80;;;13.20;57.50;;;;;;12916961;23;20162;-84
2022/03/13 21:26:53;;;;;;;14.43;9.30;;;13.20;57.10;;;;;;12915661;23;20198;-84
2022/03/13 21:31:56;;;;;;;15.37;9.93;;;13.30;57.40;;;;;;12915242;23;20715;-84
2022/03/13 21:36:59;;;;;;;14.33;10.00;;;13.10;57.50;;;;;;12915537;23;20690;-83
2022/03/13 21:42:02;;;;;;;18.63;11.17;;;12.80;57.80;;;;;;12919877;23;20205;-83
2022/03/13 21:47:07;;;;;;;17.53;11.47;;;12.70;58.30;;;;;;12935585;23;20548;-83
2022/03/13 21:52:10;;;;;;;19.13;10.93;;;12.70;58.60;;;;;;12918832;23;20194;-83
2022/03/13 21:57:13;;;;;;;16.23;10.60;;;12.80;58.30;;;;;;12920293;23;20197;-84
2022/03/13 22:02:15;;;;;;;13.93;8.97;;;13.00;58.10;;;;;;12918254;23;20174;-83
2022/03/13 22:07:21;;;;;;;18.17;10.70;;;13.20;57.60;;;;;;12919930;23;20171;-83
2022/03/13 22:12:31;;;;;;;18.73;10.43;;;13.10;57.40;;;;;;12917911;23;20229;-83
2022/03/13 22:17:37;;;;;;;15.53;10.20;;;13.10;57.40;;;;;;12918027;23;20171;-84
2022/03/13 22:22:39;;;;;;;12.67;9.27;;;13.40;56.20;;;;;;12936773;23;20661;-84
2022/03/13 22:27:42;;;;;;;14.40;9.47;;;13.20;57.10;;;;;;12921113;23;20173;-83
2022/03/13 22:32:45;;;;;;;24.13;16.33;;;13.20;57.30;;;;;;12936410;23;20190;-83
2022/03/13 22:37:47;;;;;;;55.50;32.07;;;13.30;53.10;;;;;;12920281;23;20166;-83
2022/03/13 22:42:50;;;;;;;17.97;11.27;;;12.70;50.20;;;;;;12919989;23;20179;-84
2022/03/13 22:47:57;;;;;;;13.60;9.63;;;13.10;57.90;;;;;;12920199;23;20220;-83
2022/03/13 22:53:00;;;;;;;16.00;10.63;;;13.30;56.90;;;;;;12919913;23;20190;-83
2022/03/13 22:58:03;;;;;;;17.17;11.50;;;13.60;56.40;;;;;;12919777;23;20170;-83
2022/03/13 23:03:06;;;;;;;12.87;9.70;;;13.30;56.70;;;;;;12920204;23;20166;-83
2022/03/13 23:08:09;;;;;;;17.27;10.43;;;13.30;57.30;;;;;;12919666;23;20170;-84
2022/03/13 23:13:15;;;;;;;46.93;29.47;;;13.10;57.90;;;;;;12918559;23;20722;-83
2022/03/13 23:18:25;;;;;;;20.53;14.67;;;12.90;54.60;;;;;;12937328;23;20221;-83
2022/03/13 23:23:30;;;;;;;20.40;12.37;;;12.80;57.80;;;;;;12917948;23;20194;-84
2022/03/13 23:28:34;;;;;;;25.87;16.17;;;12.90;58.10;;;;;;12919474;23;20170;-83
2022/03/13 23:33:37;;;;;;;14.80;10.53;;;12.60;56.20;;;;;;12916920;23;20574;-83
2022/03/13 23:38:42;;;;;;;13.87;10.17;;;12.60;58.80;;;;;;12918706;23;20625;-84
2022/03/13 23:43:47;;;;;;;31.43;19.33;;;12.90;58.10;;;;;;12918927;23;20178;-83
2022/03/13 23:48:52;;;;;;;16.60;10.87;;;13.00;55.30;;;;;;12891367;23;20178;-84
2022/03/13 23:53:54;;;;;;;31.03;19.67;;;13.20;57.70;;;;;;12935908;23;20190;-83
2022/03/13 23:58:57;;;;;;;21.30;12.73;;;13.20;55.50;;;;;;12936148;23;20205;-83
